sensor_id;sensor_type;location;lat;lon;timestamp;pressure;altitude;pressure_sealevel;temperature;humidity
72086;BME280;64750;52.134;5.424;2023-12-20T00:01:06;101765.97;;;6.57;100.00
72086;BME280;64750;52.134;5.424;2023-12-20T00:03:32;101762.47;;;6.59;100.00
72086;BME280;64750;52.134;5.424;2023-12-20T00:06:08;101762.47;;;6.59;100.00
72086;BME280;64750;52.134;5.424;2023-12-20T00:08:34;101752.00;;;6.59;100.00
72086;BME280;64750;52.134;5.424;2023-12-20T00:11:01;101756.38;;;6.58;100.00
72086;BME280;64750;52.134;5.424;2023-12-20T00:13:28;101748.56;;;6.58;100.00
72086;BME280;64750;52.134;5.424;2023-12-20T00:15:54;101758.13;;;6.57;100.00
72086;BME280;64750;52.134;5.424;2023-12-20T00:18:21;101745.06;;;6.57;100.00
72086;BME280;64750;52.134;5.424;2023-12-20T00:20:47;101747.78;;;6.54;100.00
72086;BME280;64750;52.134;5.424;2023-12-20T00:23:13;101749.50;;;6.55;100.00
72086;BME280;64750;52.134;5.424;2023-12-20T00:25:40;101752.16;;;6.54;100.00
72086;BME280;64750;52.134;5.424;2023-12-20T00:28:06;101744.31;;;6.54;100.00
72086;BME280;64750;52.134;5.424;2023-12-20T00:30:33;101743.56;;;6.50;100.00
72086;BME280;64750;52.134;5.424;2023-12-20T00:33:00;101746.22;;;6.49;99.91
72086;BME280;64750;52.134;5.424;2023-12-20T00:35:26;101755.84;;;6.47;99.86
72086;BME280;64750;52.134;5.424;2023-12-20T00:37:53;101756.78;;;6.44;99.94
72086;BME280;64750;52.134;5.424;2023-12-20T00:40:19;101755.22;;;6.38;99.98
72086;BME280;64750;52.134;5.424;2023-12-20T00:42:49;101751.72;;;6.38;99.62
72086;BME280;64750;52.134;5.424;2023-12-20T00:45:16;101749.16;;;6.36;100.00
72086;BME280;64750;52.134;5.424;2023-12-20T00:47:42;101749.09;;;6.38;99.97
72086;BME280;64750;52.134;5.424;2023-12-20T00:50:09;101748.13;;;6.42;99.97
72086;BME280;64750;52.134;5.424;2023-12-20T00:52:36;101749.03;;;6.41;99.80
72086;BME280;64750;52.134;5.424;2023-12-20T00:55:03;101746.44;;;6.41;99.58
72086;BME280;64750;52.134;5.424;2023-12-20T00:57:30;101749.03;;;6.41;99.53
72086;BME280;64750;52.134;5.424;2023-12-20T00:59:57;101755.22;;;6.38;99.32
72086;BME280;64750;52.134;5.424;2023-12-20T01:02:24;101750.94;;;6.34;99.23
72086;BME280;64750;52.134;5.424;2023-12-20T01:04:50;101754.44;;;6.35;99.33
72086;BME280;64750;52.134;5.424;2023-12-20T01:07:17;101743.94;;;6.36;99.61
72086;BME280;64750;52.134;5.424;2023-12-20T01:09:43;101741.31;;;6.36;99.38
72086;BME280;64750;52.134;5.424;2023-12-20T01:12:10;101737.09;;;6.32;99.25
72086;BME280;64750;52.134;5.424;2023-12-20T01:14:38;101734.59;;;6.28;98.93
72086;BME280;64750;52.134;5.424;2023-12-20T01:17:05;101731.31;;;6.21;98.89
72086;BME280;64750;52.134;5.424;2023-12-20T01:19:32;101738.09;;;6.27;99.12
72086;BME280;64750;52.134;5.424;2023-12-20T01:21:58;101731.16;;;6.27;99.25
72086;BME280;64750;52.134;5.424;2023-12-20T01:24:25;101737.25;;;6.26;99.00
72086;BME280;64750;52.134;5.424;2023-12-20T01:26:51;101748.66;;;6.23;98.97
72086;BME280;64750;52.134;5.424;2023-12-20T01:29:18;101753.97;;;6.20;98.79
72086;BME280;64750;52.134;5.424;2023-12-20T01:31:44;101761.78;;;6.20;98.91
72086;BME280;64750;52.134;5.424;2023-12-20T01:34:11;101756.56;;;6.20;98.72
72086;BME280;64750;52.134;5.424;2023-12-20T01:36:38;101757.50;;;6.18;98.91
72086;BME280;64750;52.134;5.424;2023-12-20T01:39:04;101762.72;;;6.18;99.20
72086;BME280;64750;52.134;5.424;2023-12-20T01:41:38;101750.59;;;6.15;99.23
72086;BME280;64750;52.134;5.424;2023-12-20T01:44:05;101753.19;;;6.17;99.40
72086;BME280;64750;52.134;5.424;2023-12-20T01:46:31;101747.13;;;6.15;99.22
72086;BME280;64750;52.134;5.424;2023-12-20T01:48:58;101747.97;;;6.15;99.50
72086;BME280;64750;52.134;5.424;2023-12-20T01:51:25;101737.53;;;6.15;99.27
72086;BME280;64750;52.134;5.424;2023-12-20T01:53:55;101733.19;;;6.16;99.51
72086;BME280;64750;52.134;5.424;2023-12-20T01:56:25;101739.19;;;6.19;99.52
72086;BME280;64750;52.134;5.424;2023-12-20T01:58:53;101747.88;;;6.20;99.60
72086;BME280;64750;52.134;5.424;2023-12-20T02:01:19;101742.69;;;6.18;99.63
72086;BME280;64750;52.134;5.424;2023-12-20T02:03:47;101747.91;;;6.18;99.65
72086;BME280;64750;52.134;5.424;2023-12-20T02:06:14;101744.47;;;6.16;99.41
72086;BME280;64750;52.134;5.424;2023-12-20T02:08:40;101742.75;;;6.15;99.75
72086;BME280;64750;52.134;5.424;2023-12-20T02:11:07;101745.31;;;6.18;99.78
72086;BME280;64750;52.134;5.424;2023-12-20T02:13:34;101738.31;;;6.19;99.78
72086;BME280;64750;52.134;5.424;2023-12-20T02:16:00;101740.13;;;6.17;99.88
72086;BME280;64750;52.134;5.424;2023-12-20T02:18:27;101737.53;;;6.15;99.54
72086;BME280;64750;52.134;5.424;2023-12-20T02:20:53;101737.53;;;6.15;99.65
72086;BME280;64750;52.134;5.424;2023-12-20T02:23:20;101727.03;;;6.18;99.92
72086;BME280;64750;52.134;5.424;2023-12-20T02:25:47;101728.75;;;6.19;99.97
72086;BME280;64750;52.134;5.424;2023-12-20T02:28:14;101734.88;;;6.18;99.89
72086;BME280;64750;52.134;5.424;2023-12-20T02:30:40;101730.47;;;6.20;99.92
72086;BME280;64750;52.134;5.424;2023-12-20T02:33:08;101725.25;;;6.19;100.00
72086;BME280;64750;52.134;5.424;2023-12-20T02:35:37;101727.03;;;6.18;99.87
72086;BME280;64750;52.134;5.424;2023-12-20T02:38:04;101720.91;;;6.19;99.94
72086;BME280;64750;52.134;5.424;2023-12-20T02:40:30;101726.13;;;6.19;99.95
72086;BME280;64750;52.134;5.424;2023-12-20T02:42:57;101723.56;;;6.18;100.00
72086;BME280;64750;52.134;5.424;2023-12-20T02:45:23;101722.66;;;6.19;100.00
72086;BME280;64750;52.134;5.424;2023-12-20T02:47:50;101719.16;;;6.20;100.00
72086;BME280;64750;52.134;5.424;2023-12-20T02:50:19;101713.09;;;6.19;99.99
72086;BME280;64750;52.134;5.424;2023-12-20T02:52:46;101713.09;;;6.19;100.00
72086;BME280;64750;52.134;5.424;2023-12-20T02:55:13;101713.09;;;6.19;100.00
72086;BME280;64750;52.134;5.424;2023-12-20T02:57:39;101711.31;;;6.20;100.00
72086;BME280;64750;52.134;5.424;2023-12-20T03:00:09;101707.00;;;6.19;100.00
72086;BME280;64750;52.134;5.424;2023-12-20T03:02:37;101702.66;;;6.19;100.00
72086;BME280;64750;52.134;5.424;2023-12-20T03:05:04;101689.59;;;6.19;100.00
72086;BME280;64750;52.134;5.424;2023-12-20T03:07:30;101703.50;;;6.20;100.00
72086;BME280;64750;52.134;5.424;2023-12-20T03:09:57;101699.97;;;6.21;100.00
72086;BME280;64750;52.134;5.424;2023-12-20T03:12:43;101704.25;;;6.23;100.00
72086;BME280;64750;52.134;5.424;2023-12-20T03:15:10;101699.03;;;6.23;100.00
72086;BME280;64750;52.134;5.424;2023-12-20T03:17:36;101695.59;;;6.21;100.00
72086;BME280;64750;52.134;5.424;2023-12-20T03:20:03;101697.31;;;6.22;100.00
72086;BME280;64750;52.134;5.424;2023-12-20T03:22:30;101690.38;;;6.21;100.00
72086;BME280;64750;52.134;5.424;2023-12-20T03:24:56;101678.22;;;6.22;100.00
72086;BME280;64750;52.134;5.424;2023-12-20T03:27:23;101675.56;;;6.23;100.00
72086;BME280;64750;52.134;5.424;2023-12-20T03:29:49;101675.59;;;6.22;100.00
72086;BME280;64750;52.134;5.424;2023-12-20T03:32:16;101670.38;;;6.22;100.00
72086;BME280;64750;52.134;5.424;2023-12-20T03:34:43;101678.22;;;6.22;100.00
72086;BME280;64750;52.134;5.424;2023-12-20T03:37:09;101685.16;;;6.21;100.00
72086;BME280;64750;52.134;5.424;2023-12-20T03:39:36;101679.88;;;6.24;99.92
72086;BME280;64750;52.134;5.424;2023-12-20T03:42:03;101691.13;;;6.27;99.71
72086;BME280;64750;52.134;5.424;2023-12-20T03:44:29;101685.81;;;6.30;99.77
72086;BME280;64750;52.134;5.424;2023-12-20T03:46:56;101684.06;;;6.30;99.71
72086;BME280;64750;52.134;5.424;2023-12-20T03:49:22;101682.25;;;6.32;99.89
72086;BME280;64750;52.134;5.424;2023-12-20T03:51:49;101690.88;;;6.34;99.70
72086;BME280;64750;52.134;5.424;2023-12-20T03:54:16;101688.25;;;6.36;99.35
72086;BME280;64750;52.134;5.424;2023-12-20T03:56:42;101685.66;;;6.34;99.14
72086;BME280;64750;52.134;5.424;2023-12-20T03:59:08;101683.09;;;6.33;99.31
72086;BME280;64750;52.134;5.424;2023-12-20T04:01:35;101677.88;;;6.33;98.83
72086;BME280;64750;52.134;5.424;2023-12-20T04:04:02;101675.22;;;6.34;98.84
72086;BME280;64750;52.134;5.424;2023-12-20T04:06:29;101683.09;;;6.33;98.96
72086;BME280;64750;52.134;5.424;2023-12-20T04:08:56;101675.22;;;6.34;98.83
72086;BME280;64750;52.134;5.424;2023-12-20T04:11:22;101674.38;;;6.34;98.37
72086;BME280;64750;52.134;5.424;2023-12-20T04:13:48;101677.81;;;6.36;98.67
72086;BME280;64750;52.134;5.424;2023-12-20T04:16:15;101680.38;;;6.37;98.51
72086;BME280;64750;52.134;5.424;2023-12-20T04:18:41;101665.56;;;6.38;98.52
72086;BME280;64750;52.134;5.424;2023-12-20T04:21:08;101665.50;;;6.39;98.21
72086;BME280;64750;52.134;5.424;2023-12-20T04:23:35;101663.75;;;6.40;98.17
72086;BME280;64750;52.134;5.424;2023-12-20T04:26:01;101664.56;;;6.42;97.79
72086;BME280;64750;52.134;5.424;2023-12-20T04:28:27;101661.94;;;6.42;97.67
72086;BME280;64750;52.134;5.424;2023-12-20T04:30:56;101671.44;;;6.45;97.95
72086;BME280;64750;52.134;5.424;2023-12-20T04:33:23;101673.16;;;6.46;98.01
72086;BME280;64750;52.134;5.424;2023-12-20T04:35:50;101678.38;;;6.46;98.09
72086;BME280;64750;52.134;5.424;2023-12-20T04:38:18;101672.22;;;6.48;97.94
72086;BME280;64750;52.134;5.424;2023-12-20T04:40:45;101680.06;;;6.48;97.67
72086;BME280;64750;52.134;5.424;2023-12-20T04:43:11;101668.72;;;6.49;97.82
72086;BME280;64750;52.134;5.424;2023-12-20T04:45:38;101661.75;;;6.48;97.67
72086;BME280;64750;52.134;5.424;2023-12-20T04:48:05;101658.25;;;6.49;97.42
72086;BME280;64750;52.134;5.424;2023-12-20T04:50:31;101666.91;;;6.51;97.37
72086;BME280;64750;52.134;5.424;2023-12-20T04:52:58;101668.59;;;6.52;97.54
72086;BME280;64750;52.134;5.424;2023-12-20T04:55:25;101655.53;;;6.54;97.20
72086;BME280;64750;52.134;5.424;2023-12-20T04:57:51;101660.69;;;6.55;97.22
72086;BME280;64750;52.134;5.424;2023-12-20T05:00:18;101643.25;;;6.56;97.08
72086;BME280;64750;52.134;5.424;2023-12-20T05:02:44;101646.75;;;6.56;96.97
72086;BME280;64750;52.134;5.424;2023-12-20T05:05:11;101632.72;;;6.59;97.26
72086;BME280;64750;52.134;5.424;2023-12-20T05:07:37;101648.41;;;6.59;97.06
72086;BME280;64750;52.134;5.424;2023-12-20T05:10:05;101654.41;;;6.61;96.68
72086;BME280;64750;52.134;5.424;2023-12-20T05:12:31;101655.25;;;6.63;96.58
72086;BME280;64750;52.134;5.424;2023-12-20T05:14:58;101655.19;;;6.65;96.70
72086;BME280;64750;52.134;5.424;2023-12-20T05:17:24;101656.91;;;6.66;96.83
72086;BME280;64750;52.134;5.424;2023-12-20T05:19:53;101648.16;;;6.67;96.55
72086;BME280;64750;52.134;5.424;2023-12-20T05:22:23;101650.78;;;6.67;96.69
72086;BME280;64750;52.134;5.424;2023-12-20T05:24:49;101652.53;;;6.66;96.46
72086;BME280;64750;52.134;5.424;2023-12-20T05:27:16;101659.47;;;6.67;96.32
72086;BME280;64750;52.134;5.424;2023-12-20T05:29:43;101665.56;;;6.68;96.25
72086;BME280;64750;52.134;5.424;2023-12-20T05:32:10;101662.00;;;6.69;96.06
72086;BME280;64750;52.134;5.424;2023-12-20T05:34:36;101660.28;;;6.69;95.99
72086;BME280;64750;52.134;5.424;2023-12-20T05:37:03;101657.66;;;6.69;96.16
72086;BME280;64750;52.134;5.424;2023-12-20T05:39:30;101661.13;;;6.70;96.09
72086;BME280;64750;52.134;5.424;2023-12-20T05:41:57;101658.50;;;6.70;95.99
72086;BME280;64750;52.134;5.424;2023-12-20T05:44:24;101656.78;;;6.69;96.24
72086;BME280;64750;52.134;5.424;2023-12-20T05:46:50;101657.66;;;6.69;95.57
72086;BME280;64750;52.134;5.424;2023-12-20T05:49:17;101655.91;;;6.70;95.85
72086;BME280;64750;52.134;5.424;2023-12-20T05:51:43;101657.66;;;6.69;95.62
72086;BME280;64750;52.134;5.424;2023-12-20T05:54:10;101659.38;;;6.70;95.76
72086;BME280;64750;52.134;5.424;2023-12-20T05:56:36;101655.00;;;6.71;95.46
72086;BME280;64750;52.134;5.424;2023-12-20T05:59:03;101660.16;;;6.72;95.75
72086;BME280;64750;52.134;5.424;2023-12-20T06:01:29;101656.66;;;6.73;95.42
72086;BME280;64750;52.134;5.424;2023-12-20T06:03:56;101650.59;;;6.73;95.42
72086;BME280;64750;52.134;5.424;2023-12-20T06:06:23;101654.91;;;6.74;95.07
72086;BME280;64750;52.134;5.424;2023-12-20T06:08:50;101654.00;;;6.75;95.36
72086;BME280;64750;52.134;5.424;2023-12-20T06:11:17;101652.19;;;6.77;95.16
72086;BME280;64750;52.134;5.424;2023-12-20T06:13:43;101654.81;;;6.77;94.88
72086;BME280;64750;52.134;5.424;2023-12-20T06:16:10;101650.50;;;6.76;95.04
72086;BME280;64750;52.134;5.424;2023-12-20T06:18:36;101650.44;;;6.78;94.93
72086;BME280;64750;52.134;5.424;2023-12-20T06:21:04;101651.31;;;6.78;95.31
72086;BME280;64750;52.134;5.424;2023-12-20T06:23:31;101644.38;;;6.77;95.14
72086;BME280;64750;52.134;5.424;2023-12-20T06:25:57;101643.47;;;6.78;95.18
72086;BME280;64750;52.134;5.424;2023-12-20T06:28:24;101646.03;;;6.80;95.01
72086;BME280;64750;52.134;5.424;2023-12-20T06:30:50;101643.41;;;6.80;94.92
72086;BME280;64750;52.134;5.424;2023-12-20T06:33:19;101650.38;;;6.79;95.09
72086;BME280;64750;52.134;5.424;2023-12-20T06:35:48;101637.28;;;6.81;94.93
72086;BME280;64750;52.134;5.424;2023-12-20T06:38:14;101642.47;;;6.82;94.83
72086;BME280;64750;52.134;5.424;2023-12-20T06:40:41;101639.84;;;6.82;94.86
72086;BME280;64750;52.134;5.424;2023-12-20T06:43:09;101639.84;;;6.82;94.78
72086;BME280;64750;52.134;5.424;2023-12-20T06:45:49;101643.25;;;6.84;94.95
72086;BME280;64750;52.134;5.424;2023-12-20T06:48:15;101638.03;;;6.84;94.70
72086;BME280;64750;52.134;5.424;2023-12-20T06:50:42;101629.28;;;6.85;94.57
72086;BME280;64750;52.134;5.424;2023-12-20T06:53:09;101625.78;;;6.86;94.86
72086;BME280;64750;52.134;5.424;2023-12-20T06:55:35;101630.09;;;6.87;94.66
72086;BME280;64750;52.134;5.424;2023-12-20T06:58:04;101629.22;;;6.88;94.50
72086;BME280;64750;52.134;5.424;2023-12-20T07:00:31;101627.44;;;6.89;94.59
72086;BME280;64750;52.134;5.424;2023-12-20T07:02:58;101634.38;;;6.90;94.62
72086;BME280;64750;52.134;5.424;2023-12-20T07:05:25;101618.69;;;6.90;94.60
72086;BME280;64750;52.134;5.424;2023-12-20T07:07:52;101625.59;;;6.93;94.20
72086;BME280;64750;52.134;5.424;2023-12-20T07:10:19;101622.91;;;6.94;94.29
72086;BME280;64750;52.134;5.424;2023-12-20T07:12:46;101633.38;;;6.94;94.66
72086;BME280;64750;52.134;5.424;2023-12-20T07:15:12;101635.03;;;6.97;94.00
72086;BME280;64750;52.134;5.424;2023-12-20T07:17:39;101619.41;;;6.95;94.30
72086;BME280;64750;52.134;5.424;2023-12-20T07:20:06;101620.25;;;6.96;94.46
72086;BME280;64750;52.134;5.424;2023-12-20T07:22:36;101616.72;;;6.97;94.34
72086;BME280;64750;52.134;5.424;2023-12-20T07:25:03;101611.44;;;6.98;94.31
72086;BME280;64750;52.134;5.424;2023-12-20T07:27:30;101621.06;;;6.98;94.70
72086;BME280;64750;52.134;5.424;2023-12-20T07:29:56;101620.16;;;6.99;94.02
72086;BME280;64750;52.134;5.424;2023-12-20T07:32:23;101617.56;;;6.99;94.08
72086;BME280;64750;52.134;5.424;2023-12-20T07:34:49;101612.31;;;6.99;94.42
72086;BME280;64750;52.134;5.424;2023-12-20T07:37:16;101607.03;;;7.00;94.35
72086;BME280;64750;52.134;5.424;2023-12-20T07:39:42;101597.44;;;7.01;94.25
72086;BME280;64750;52.134;5.424;2023-12-20T07:42:09;101602.59;;;7.02;94.18
72086;BME280;64750;52.134;5.424;2023-12-20T07:44:35;101607.88;;;7.01;93.87
72086;BME280;64750;52.134;5.424;2023-12-20T07:47:02;101617.38;;;7.03;94.28
72086;BME280;64750;52.134;5.424;2023-12-20T07:49:32;101618.19;;;7.05;93.84
72086;BME280;64750;52.134;5.424;2023-12-20T07:51:59;101622.53;;;7.06;94.35
72086;BME280;64750;52.134;5.424;2023-12-20T07:54:26;101623.31;;;7.09;93.88
72086;BME280;64750;52.134;5.424;2023-12-20T07:56:52;101640.72;;;7.10;93.92
72086;BME280;64750;52.134;5.424;2023-12-20T07:59:19;101628.53;;;7.09;93.68
72086;BME280;64750;52.134;5.424;2023-12-20T08:01:57;101632.88;;;7.10;93.85
72086;BME280;64750;52.134;5.424;2023-12-20T08:04:24;101645.88;;;7.11;93.89
72086;BME280;64750;52.134;5.424;2023-12-20T08:06:54;101645.88;;;7.11;93.82
72086;BME280;64750;52.134;5.424;2023-12-20T08:09:21;101650.22;;;7.12;93.71
72086;BME280;64750;52.134;5.424;2023-12-20T08:11:48;101656.31;;;7.13;93.58
72086;BME280;64750;52.134;5.424;2023-12-20T08:14:15;101651.03;;;7.14;93.67
72086;BME280;64750;52.134;5.424;2023-12-20T08:16:44;101654.47;;;7.15;93.66
72086;BME280;64750;52.134;5.424;2023-12-20T08:19:11;101643.97;;;7.16;94.12
72086;BME280;64750;52.134;5.424;2023-12-20T08:21:37;101650.91;;;7.17;93.97
72086;BME280;64750;52.134;5.424;2023-12-20T08:24:05;101643.00;;;7.19;93.95
72086;BME280;64750;52.134;5.424;2023-12-20T08:26:32;101639.56;;;7.18;93.64
72086;BME280;64750;52.134;5.424;2023-12-20T08:28:59;101635.16;;;7.20;93.87
72086;BME280;64750;52.134;5.424;2023-12-20T08:31:28;101628.19;;;7.19;93.52
72086;BME280;64750;52.134;5.424;2023-12-20T08:33:55;101627.31;;;7.20;93.78
72086;BME280;64750;52.134;5.424;2023-12-20T08:36:22;101635.94;;;7.22;93.73
72086;BME280;64750;52.134;5.424;2023-12-20T08:38:49;101629.00;;;7.21;93.83
72086;BME280;64750;52.134;5.424;2023-12-20T08:41:17;101621.13;;;7.21;93.94
72086;BME280;64750;52.134;5.424;2023-12-20T08:43:44;101622.84;;;7.22;93.87
72086;BME280;64750;52.134;5.424;2023-12-20T08:46:11;101631.59;;;7.21;94.27
72086;BME280;64750;52.134;5.424;2023-12-20T08:48:38;101620.31;;;7.21;94.27
72086;BME280;64750;52.134;5.424;2023-12-20T08:51:05;101627.25;;;7.22;94.45
72086;BME280;64750;52.134;5.424;2023-12-20T08:53:35;101618.53;;;7.21;94.63
72086;BME280;64750;52.134;5.424;2023-12-20T08:56:02;101625.53;;;7.21;94.66
72086;BME280;64750;52.134;5.424;2023-12-20T08:58:29;101623.81;;;7.20;95.04
72086;BME280;64750;52.134;5.424;2023-12-20T09:00:56;101619.47;;;7.20;95.34
72086;BME280;64750;52.134;5.424;2023-12-20T09:03:24;101628.19;;;7.19;95.70
72086;BME280;64750;52.134;5.424;2023-12-20T09:05:50;101639.56;;;7.18;96.17
72086;BME280;64750;52.134;5.424;2023-12-20T09:08:17;101638.75;;;7.16;96.55
72086;BME280;64750;52.134;5.424;2023-12-20T09:10:43;101619.66;;;7.14;96.75
72086;BME280;64750;52.134;5.424;2023-12-20T09:13:11;101624.88;;;7.14;97.42
72086;BME280;64750;52.134;5.424;2023-12-20T09:15:38;101624.00;;;7.14;97.54
72086;BME280;64750;52.134;5.424;2023-12-20T09:18:05;101624.88;;;7.14;97.46
72086;BME280;64750;52.134;5.424;2023-12-20T09:20:31;101623.16;;;7.13;97.69
72086;BME280;64750;52.134;5.424;2023-12-20T09:22:59;101633.63;;;7.13;98.32
72086;BME280;64750;52.134;5.424;2023-12-20T09:25:26;101631.91;;;7.12;98.45
72086;BME280;64750;52.134;5.424;2023-12-20T09:27:53;101631.84;;;7.15;98.60
72086;BME280;64750;52.134;5.424;2023-12-20T09:30:19;101618.66;;;7.18;98.45
72086;BME280;64750;52.134;5.424;2023-12-20T09:32:54;101616.94;;;7.17;98.42
72086;BME280;64750;52.134;5.424;2023-12-20T09:35:20;101621.25;;;7.18;98.65
72086;BME280;64750;52.134;5.424;2023-12-20T09:37:47;101623.81;;;7.20;99.10
72086;BME280;64750;52.134;5.424;2023-12-20T09:40:17;101617.69;;;7.21;99.17
72086;BME280;64750;52.134;5.424;2023-12-20T09:45:15;101628.72;;;7.29;98.58
72086;BME280;64750;52.134;5.424;2023-12-20T09:47:46;101626.09;;;7.31;98.13
72086;BME280;64750;52.134;5.424;2023-12-20T09:50:13;101632.91;;;7.35;98.07
72086;BME280;64750;52.134;5.424;2023-12-20T09:52:41;101648.53;;;7.36;97.57
72086;BME280;64750;52.134;5.424;2023-12-20T09:55:08;101628.31;;;7.42;97.15
72086;BME280;64750;52.134;5.424;2023-12-20T09:57:36;101626.53;;;7.44;97.07
72086;BME280;64750;52.134;5.424;2023-12-20T10:00:02;101632.47;;;7.47;96.47
72086;BME280;64750;52.134;5.424;2023-12-20T10:02:30;101629.84;;;7.49;96.46
72086;BME280;64750;52.134;5.424;2023-12-20T10:04:59;101623.63;;;7.51;96.19
72086;BME280;64750;52.134;5.424;2023-12-20T10:07:26;101637.50;;;7.53;95.83
72086;BME280;64750;52.134;5.424;2023-12-20T10:09:54;101644.38;;;7.56;96.17
72086;BME280;64750;52.134;5.424;2023-12-20T10:12:21;101638.19;;;7.59;96.00
72086;BME280;64750;52.134;5.424;2023-12-20T10:14:48;101640.72;;;7.62;95.60
72086;BME280;64750;52.134;5.424;2023-12-20T10:17:15;101647.69;;;7.61;95.61
72086;BME280;64750;52.134;5.424;2023-12-20T10:19:44;101646.78;;;7.62;95.17
72086;BME280;64750;52.134;5.424;2023-12-20T10:22:10;101642.38;;;7.64;95.14
72086;BME280;64750;52.134;5.424;2023-12-20T10:24:37;101639.75;;;7.64;95.23
72086;BME280;64750;52.134;5.424;2023-12-20T10:27:04;101639.69;;;7.66;94.90
72086;BME280;64750;52.134;5.424;2023-12-20T10:29:35;101637.09;;;7.66;95.10
72086;BME280;64750;52.134;5.424;2023-12-20T10:32:30;101618.72;;;7.67;94.52
72086;BME280;64750;52.134;5.424;2023-12-20T10:34:57;101627.44;;;7.68;95.12
72086;BME280;64750;52.134;5.424;2023-12-20T10:37:25;101616.84;;;7.71;94.86
72086;BME280;64750;52.134;5.424;2023-12-20T10:39:53;101627.19;;;7.74;95.32
72086;BME280;64750;52.134;5.424;2023-12-20T10:42:28;101626.28;;;7.75;94.91
72086;BME280;64750;52.134;5.424;2023-12-20T10:44:56;101620.97;;;7.78;94.92
72086;BME280;64750;52.134;5.424;2023-12-20T10:47:24;101607.75;;;7.81;94.53
72086;BME280;64750;52.134;5.424;2023-12-20T10:49:52;101619.03;;;7.83;94.36
72086;BME280;64750;52.134;5.424;2023-12-20T10:52:19;101608.50;;;7.85;93.96
72086;BME280;64750;52.134;5.424;2023-12-20T10:54:48;101617.09;;;7.88;93.69
72086;BME280;64750;52.134;5.424;2023-12-20T10:57:16;101601.41;;;7.88;93.10
72086;BME280;64750;52.134;5.424;2023-12-20T10:59:45;101604.78;;;7.91;92.97
72086;BME280;64750;52.134;5.424;2023-12-20T11:02:16;101612.66;;;7.91;92.71
72086;BME280;64750;52.134;5.424;2023-12-20T11:04:45;101595.13;;;7.93;92.56
72086;BME280;64750;52.134;5.424;2023-12-20T11:07:50;101602.97;;;7.93;92.60
72086;BME280;64750;52.134;5.424;2023-12-20T11:10:24;101602.13;;;7.92;92.95
72086;BME280;64750;52.134;5.424;2023-12-20T11:13:02;101584.59;;;7.94;93.02
72086;BME280;64750;52.134;5.424;2023-12-20T11:15:38;101591.47;;;7.97;92.76
72086;BME280;64750;52.134;5.424;2023-12-20T11:18:05;101591.41;;;7.98;92.82
72086;BME280;64750;52.134;5.424;2023-12-20T11:20:40;101597.41;;;8.02;92.71
72086;BME280;64750;52.134;5.424;2023-12-20T11:23:10;101592.97;;;8.04;92.65
72086;BME280;64750;52.134;5.424;2023-12-20T11:25:47;101580.72;;;8.04;92.22
72086;BME280;64750;52.134;5.424;2023-12-20T11:28:15;101576.47;;;8.02;92.46
72086;BME280;64750;52.134;5.424;2023-12-20T11:33:37;101576.47;;;8.02;92.71
72086;BME280;64750;52.134;5.424;2023-12-20T11:36:12;101578.97;;;8.05;92.49
72086;BME280;64750;52.134;5.424;2023-12-20T11:38:53;101571.84;;;8.09;92.48
72086;BME280;64750;52.134;5.424;2023-12-20T11:41:23;101570.03;;;8.11;93.00
72086;BME280;64750;52.134;5.424;2023-12-20T11:43:53;101570.75;;;8.14;92.92
72086;BME280;64750;52.134;5.424;2023-12-20T11:46:20;101569.84;;;8.15;92.74
72086;BME280;64750;52.134;5.424;2023-12-20T11:48:47;101553.22;;;8.16;91.91
72086;BME280;64750;52.134;5.424;2023-12-20T11:51:14;101541.91;;;8.16;92.00
72086;BME280;64750;52.134;5.424;2023-12-20T11:53:41;101553.22;;;8.16;91.77
72086;BME280;64750;52.134;5.424;2023-12-20T11:56:11;101548.72;;;8.20;91.25
72086;BME280;64750;52.134;5.424;2023-12-20T11:58:38;101561.81;;;8.20;91.50
72086;BME280;64750;52.134;5.424;2023-12-20T12:01:05;101542.63;;;8.19;91.32
72086;BME280;64750;52.134;5.424;2023-12-20T12:03:35;101550.44;;;8.21;90.92
72086;BME280;64750;52.134;5.424;2023-12-20T12:06:02;101556.47;;;8.23;90.69
72086;BME280;64750;52.134;5.424;2023-12-20T12:08:31;101549.50;;;8.22;90.79
72086;BME280;64750;52.134;5.424;2023-12-20T12:10:57;101535.44;;;8.25;90.15
72086;BME280;64750;52.134;5.424;2023-12-20T12:13:24;101556.41;;;8.25;90.19
72086;BME280;64750;52.134;5.424;2023-12-20T12:15:53;101552.00;;;8.25;90.37
72086;BME280;64750;52.134;5.424;2023-12-20T12:18:23;101545.94;;;8.25;90.39
72086;BME280;64750;52.134;5.424;2023-12-20T12:20:49;101550.28;;;8.24;90.35
72086;BME280;64750;52.134;5.424;2023-12-20T12:23:23;101559.88;;;8.25;90.13
72086;BME280;64750;52.134;5.424;2023-12-20T12:25:54;101558.97;;;8.26;90.32
72086;BME280;64750;52.134;5.424;2023-12-20T12:28:21;101555.44;;;8.27;90.11
72086;BME280;64750;52.134;5.424;2023-12-20T12:31:00;101547.50;;;8.29;90.25
72086;BME280;64750;52.134;5.424;2023-12-20T12:33:27;101536.13;;;8.30;90.50
72086;BME280;64750;52.134;5.424;2023-12-20T12:35:54;101523.03;;;8.30;90.53
72086;BME280;64750;52.134;5.424;2023-12-20T12:38:21;101523.88;;;8.30;90.38
72086;BME280;64750;52.134;5.424;2023-12-20T12:40:49;101528.13;;;8.33;91.21
72086;BME280;64750;52.134;5.424;2023-12-20T12:43:16;101531.63;;;8.33;90.65
72086;BME280;64750;52.134;5.424;2023-12-20T12:45:42;101506.34;;;8.32;90.50
72086;BME280;64750;52.134;5.424;2023-12-20T12:48:10;101509.78;;;8.33;91.17
72086;BME280;64750;52.134;5.424;2023-12-20T12:50:36;101512.41;;;8.33;91.36
72086;BME280;64750;52.134;5.424;2023-12-20T12:53:03;101508.88;;;8.34;91.83
72086;BME280;64750;52.134;5.424;2023-12-20T12:55:30;101521.06;;;8.35;92.08
72086;BME280;64750;52.134;5.424;2023-12-20T12:57:56;101512.41;;;8.33;91.34
72086;BME280;64750;52.134;5.424;2023-12-20T13:00:23;101514.13;;;8.34;91.21
72086;BME280;64750;52.134;5.424;2023-12-20T13:02:50;101504.56;;;8.33;91.88
72086;BME280;64750;52.134;5.424;2023-12-20T13:05:18;101488.75;;;8.36;91.56
72086;BME280;64750;52.134;5.424;2023-12-20T13:07:45;101498.31;;;8.37;92.01